Time;durP1;ratioP1;P1;durP2;ratioP2;P2;SDS_P1;SDS_P2;PMS_P1;PMS_P2;Temp;Humidity;BMP_temperature;BMP_pressure;BME280_temperature;BME280_humidity;BME280_pressure;Samples;Min_cycle;Max_cycle;Signal;HPM_P1;HPM_P2
2024/01/10 00:01:02;;;;;;;;;;;;;;;-0.18;71.31;102037.41;5070374;28;19924;-57
2024/01/10 00:03:30;;;;;;;;;;;;;;;-0.28;71.03;102034.31;5068882;28;19932;-58
2024/01/10 00:05:57;;;;;;;;;;;;;;;-0.40;70.73;102036.00;5085224;28;19924;-54
2024/01/10 00:08:24;;;;;;;;;;;;;;;-0.35;71.27;102041.63;5070863;28;20559;-55
2024/01/10 00:10:59;;;;;;;;;;;;;;;-0.31;71.43;102045.53;5056855;28;19980;-60
2024/01/10 00:13:27;;;;;;;;;;;;;;;-0.35;71.61;102037.00;5065388;28;19927;-56
2024/01/10 00:15:55;;;;;;;;;;;;;;;-0.37;71.64;102041.81;5036325;28;19924;-56
2024/01/10 00:18:36;;;;;;;;;;;;;;;-0.29;71.58;102036.19;5070435;28;19929;-55
2024/01/10 00:21:03;;;;;;;;;;;;;;;-0.29;72.08;102041.59;5070087;28;19932;-56
2024/01/10 00:23:30;;;;;;;;;;;;;;;0.05;70.89;102042.38;5070456;28;19925;-56
2024/01/10 00:25:57;;;;;;;;;;;;;;;-0.04;70.57;102045.31;5069549;28;19944;-58
2024/01/10 00:28:25;;;;;;;;;;;;;;;-0.20;71.02;102039.50;5065595;28;20839;-59
2024/01/10 00:30:52;;;;;;;;;;;;;;;-0.02;70.63;102037.78;5069791;28;19924;-54
2024/01/10 00:33:19;;;;;;;;;;;;;;;-0.14;70.61;102036.78;5068352;28;19931;-57
2024/01/10 00:35:46;;;;;;;;;;;;;;;-0.31;70.77;102032.84;5068465;28;19931;-57
2024/01/10 00:38:13;;;;;;;;;;;;;;;-0.42;72.34;102024.53;5067998;28;20504;-56
2024/01/10 00:40:41;;;;;;;;;;;;;;;-0.28;72.21;102024.31;5070066;28;19924;-58
2024/01/10 00:43:08;;;;;;;;;;;;;;;-0.12;71.90;102021.16;5070191;28;19924;-57
2024/01/10 00:45:35;;;;;;;;;;;;;;;0.12;70.93;102018.81;5085110;28;19924;-56
2024/01/10 00:48:02;;;;;;;;;;;;;;;0.09;70.03;102022.75;5070181;28;20382;-57
2024/01/10 00:50:29;;;;;;;;;;;;;;;-0.09;71.07;102019.91;5071303;28;19924;-58
2024/01/10 00:52:56;;;;;;;;;;;;;;;0.10;71.22;102023.59;5069196;28;19931;-58
2024/01/10 00:55:23;;;;;;;;;;;;;;;0.25;70.45;102029.59;5069072;28;19924;-58
2024/01/10 00:57:50;;;;;;;;;;;;;;;0.29;69.67;102020.84;5068790;28;19924;-56
2024/01/10 01:00:17;;;;;;;;;;;;;;;0.13;70.37;102020.47;5069071;28;20571;-56
2024/01/10 01:02:45;;;;;;;;;;;;;;;0.15;69.99;102010.25;5102633;28;19931;-57
2024/01/10 01:05:12;;;;;;;;;;;;;;;0.02;71.22;102021.13;5069802;28;19929;-57
2024/01/10 01:07:39;;;;;;;;;;;;;;;0.05;71.02;102010.72;5057698;28;19935;-58
2024/01/10 01:10:08;;;;;;;;;;;;;;;-0.04;71.90;102012.81;5069945;28;20801;-54
2024/01/10 01:12:35;;;;;;;;;;;;;;;0.10;71.13;102008.19;5051751;28;19999;-55
2024/01/10 01:15:03;;;;;;;;;;;;;;;0.05;71.24;102009.88;5069316;28;20315;-57
2024/01/10 01:17:30;;;;;;;;;;;;;;;-0.05;71.36;102023.84;5067217;28;20614;-57
2024/01/10 01:19:57;;;;;;;;;;;;;;;-0.07;72.37;102007.00;5069573;28;19924;-58
2024/01/10 01:22:24;;;;;;;;;;;;;;;0.11;71.62;102003.59;5050028;28;19925;-56
2024/01/10 01:24:51;;;;;;;;;;;;;;;0.23;71.00;102008.13;5068758;28;20271;-57
2024/01/10 01:27:18;;;;;;;;;;;;;;;0.28;70.67;102008.31;5050194;28;19931;-57
2024/01/10 01:29:45;;;;;;;;;;;;;;;0.21;70.19;102006.69;5068357;28;19924;-56
2024/01/10 01:32:12;;;;;;;;;;;;;;;0.25;70.94;102011.47;5067174;28;19924;-57
2024/01/10 01:34:39;;;;;;;;;;;;;;;0.20;70.60;102013.16;5068974;28;19931;-56
2024/01/10 01:37:06;;;;;;;;;;;;;;;-0.03;70.92;102008.22;5066805;28;19925;-58
2024/01/10 01:39:33;;;;;;;;;;;;;;;0.03;71.10;102011.97;5068992;28;19999;-58
2024/01/10 01:42:00;;;;;;;;;;;;;;;0.01;71.50;102017.59;5068965;28;20027;-56
2024/01/10 01:44:28;;;;;;;;;;;;;;;0.02;70.65;102002.19;5068273;28;19925;-57
2024/01/10 01:46:55;;;;;;;;;;;;;;;-0.04;71.74;102017.41;5068434;28;19932;-57
2024/01/10 01:49:24;;;;;;;;;;;;;;;0.00;71.52;102014.03;5066110;28;19925;-57
2024/01/10 01:51:52;;;;;;;;;;;;;;;0.00;71.80;102014.03;5067667;28;19935;-56
2024/01/10 01:54:20;;;;;;;;;;;;;;;-0.07;71.45;102015.94;5068106;28;19924;-62
2024/01/10 01:56:47;;;;;;;;;;;;;;;-0.09;71.87;102007.19;5068737;28;19924;-62
2024/01/10 01:59:14;;;;;;;;;;;;;;;-0.01;71.66;102006.13;5066550;28;19939;-63
2024/01/10 02:01:41;;;;;;;;;;;;;;;0.06;72.35;102006.94;5066992;28;19932;-62
2024/01/10 02:04:09;;;;;;;;;;;;;;;0.09;71.54;102008.41;5061966;28;19925;-62
2024/01/10 02:06:36;;;;;;;;;;;;;;;0.17;71.43;102005.47;5066869;28;19931;-61
2024/01/10 02:09:03;;;;;;;;;;;;;;;0.22;71.67;101998.34;5068707;28;19924;-65
2024/01/10 02:11:30;;;;;;;;;;;;;;;0.07;72.03;102003.19;5083748;28;19943;-63
2024/01/10 02:13:57;;;;;;;;;;;;;;;0.14;71.19;101995.06;5068734;28;19925;-62
2024/01/10 02:16:25;;;;;;;;;;;;;;;-0.10;72.51;101992.00;5066823;28;19931;-62
2024/01/10 02:18:52;;;;;;;;;;;;;;;-0.18;72.43;102003.06;5066306;28;20060;-62
2024/01/10 02:21:22;;;;;;;;;;;;;;;-0.29;73.54;101997.44;5068108;28;19924;-63
2024/01/10 02:23:49;;;;;;;;;;;;;;;-0.08;72.86;102000.75;5066731;28;20318;-63
2024/01/10 02:26:16;;;;;;;;;;;;;;;0.07;72.69;101999.66;5068682;28;19924;-63
2024/01/10 02:28:44;;;;;;;;;;;;;;;-0.05;72.23;101994.91;5062968;28;19928;-62
2024/01/10 02:31:11;;;;;;;;;;;;;;;-0.05;72.97;102003.00;5079745;28;19932;-61
2024/01/10 02:33:38;;;;;;;;;;;;;;;-0.11;73.04;101993.06;5048259;28;19967;-62
2024/01/10 02:36:05;;;;;;;;;;;;;;;-0.14;73.20;101984.53;5055732;28;19931;-62
2024/01/10 02:38:32;;;;;;;;;;;;;;;0.09;72.26;101994.88;5099879;28;19931;-63
2024/01/10 02:41:02;;;;;;;;;;;;;;;0.02;72.27;101983.22;5069027;28;20398;-64
2024/01/10 02:43:29;;;;;;;;;;;;;;;-0.03;72.37;101987.41;5071634;28;20322;-62
2024/01/10 02:45:56;;;;;;;;;;;;;;;-0.06;72.26;101987.00;5072152;28;20603;-63
2024/01/10 02:48:23;;;;;;;;;;;;;;;-0.19;72.10;101982.44;5071708;28;19990;-61
2024/01/10 02:50:51;;;;;;;;;;;;;;;-0.18;73.11;101988.69;5071577;28;19925;-62
2024/01/10 02:53:18;;;;;;;;;;;;;;;-0.29;72.86;101990.16;5071925;28;19932;-62
2024/01/10 02:55:46;;;;;;;;;;;;;;;-0.22;73.16;101998.25;5069311;28;19924;-62
2024/01/10 02:58:13;;;;;;;;;;;;;;;-0.29;73.39;101990.16;5071781;28;19932;-62
2024/01/10 03:00:40;;;;;;;;;;;;;;;-0.17;73.55;101980.34;5069589;28;20385;-63
2024/01/10 03:03:07;;;;;;;;;;;;;;;-0.20;73.30;101986.19;5071416;28;19931;-62
2024/01/10 03:05:34;;;;;;;;;;;;;;;-0.06;73.54;101976.16;5049726;28;19940;-63
2024/01/10 03:08:02;;;;;;;;;;;;;;;-0.19;73.46;101977.00;5050135;28;20691;-63
2024/01/10 03:10:29;;;;;;;;;;;;;;;-0.14;73.03;101984.53;5049290;28;19924;-62
2024/01/10 03:12:56;;;;;;;;;;;;;;;-0.28;72.88;101982.88;5060209;28;19932;-62
2024/01/10 03:15:25;;;;;;;;;;;;;;;-0.32;73.39;101979.78;5071611;28;19924;-55
2024/01/10 03:17:52;;;;;;;;;;;;;;;-0.44;73.95;101986.88;5059312;28;19924;-59
2024/01/10 03:20:19;;;;;;;;;;;;;;;-0.45;74.47;101984.34;5054406;28;19924;-59
2024/01/10 03:22:46;;;;;;;;;;;;;;;-0.21;73.13;101983.72;5071124;28;19924;-57
2024/01/10 03:25:13;;;;;;;;;;;;;;;-0.09;73.33;101985.53;5069142;28;19924;-57
2024/01/10 03:27:40;;;;;;;;;;;;;;;0.02;72.73;101967.78;5069299;28;19935;-57
2024/01/10 03:30:08;;;;;;;;;;;;;;;0.14;72.54;101976.09;5071343;28;19931;-56
2024/01/10 03:32:35;;;;;;;;;;;;;;;0.18;72.09;101977.31;5069410;28;19928;-55
2024/01/10 03:35:02;;;;;;;;;;;;;;;0.14;71.65;101968.78;5070505;28;19924;-54
2024/01/10 03:37:30;;;;;;;;;;;;;;;0.43;71.63;101962.00;5070778;28;19924;-57
2024/01/10 03:39:59;;;;;;;;;;;;;;;0.21;71.37;101969.59;5071044;28;19924;-54
2024/01/10 03:42:26;;;;;;;;;;;;;;;0.07;72.06;101964.44;5070983;28;19924;-53
2024/01/10 03:44:53;;;;;;;;;;;;;;;0.13;71.86;101960.88;5085676;28;19924;-55
2024/01/10 03:47:20;;;;;;;;;;;;;;;0.23;71.21;101961.25;5070477;28;20371;-58
2024/01/10 03:49:47;;;;;;;;;;;;;;;0.09;71.73;101957.75;5068144;28;19924;-56
2024/01/10 03:52:15;;;;;;;;;;;;;;;-0.06;72.37;101959.91;5070053;28;19924;-56
2024/01/10 03:54:42;;;;;;;;;;;;;;;-0.05;72.51;101970.53;5067753;28;19924;-55
2024/01/10 03:57:09;;;;;;;;;;;;;;;0.07;72.94;101964.44;5069942;28;19931;-57
2024/01/10 03:59:36;;;;;;;;;;;;;;;0.16;71.79;101969.41;5068917;28;19924;-57
2024/01/10 04:02:03;;;;;;;;;;;;;;;0.10;71.53;101970.28;5070195;28;20022;-53
2024/01/10 04:04:30;;;;;;;;;;;;;;;0.00;71.70;101970.72;5070255;28;19924;-57
2024/01/10 04:06:57;;;;;;;;;;;;;;;-0.07;72.56;101971.78;5069686;28;19943;-54
2024/01/10 04:09:24;;;;;;;;;;;;;;;-0.06;73.01;101965.31;5067671;28;19939;-52
2024/01/10 04:11:51;;;;;;;;;;;;;;;0.08;72.67;101966.94;5069480;28;19942;-54
2024/01/10 04:14:18;;;;;;;;;;;;;;;0.08;73.03;101969.66;5068341;28;19931;-56
2024/01/10 04:16:46;;;;;;;;;;;;;;;0.15;71.61;101965.03;5068322;28;19924;-55
2024/01/10 04:19:13;;;;;;;;;;;;;;;0.05;71.77;101966.53;5062739;28;19967;-55
2024/01/10 04:21:40;;;;;;;;;;;;;;;0.06;71.59;101970.91;5064437;28;19924;-58
2024/01/10 04:24:07;;;;;;;;;;;;;;;0.24;71.51;101958.34;5050739;28;19924;-58
2024/01/10 04:26:34;;;;;;;;;;;;;;;0.22;70.76;101957.72;5068569;28;19932;-57
2024/01/10 04:29:01;;;;;;;;;;;;;;;0.17;71.39;101954.81;5068703;28;19925;-55
2024/01/10 04:31:29;;;;;;;;;;;;;;;0.28;70.06;101954.13;5066351;28;19928;-53
2024/01/10 04:33:56;;;;;;;;;;;;;;;0.31;70.71;101944.75;5066434;28;19928;-53
2024/01/10 04:36:23;;;;;;;;;;;;;;;0.30;69.20;101937.69;5066929;28;19935;-54
2024/01/10 04:38:50;;;;;;;;;;;;;;;0.27;69.80;101944.34;5084250;28;19931;-55
2024/01/10 04:41:17;;;;;;;;;;;;;;;0.33;69.55;101938.06;5084153;28;19931;-55
2024/01/10 04:43:44;;;;;;;;;;;;;;;0.22;70.09;101944.16;5079757;28;19935;-55
2024/01/10 04:46:11;;;;;;;;;;;;;;;0.38;69.67;101942.84;5048701;28;19924;-56
2024/01/10 04:48:38;;;;;;;;;;;;;;;0.65;69.11;101945.16;5054428;28;19932;-59
2024/01/10 04:51:05;;;;;;;;;;;;;;;0.60;69.18;101952.28;5050796;28;19928;-56
2024/01/10 04:53:32;;;;;;;;;;;;;;;0.76;68.17;101944.47;5083737;28;19931;-58
2024/01/10 04:55:59;;;;;;;;;;;;;;;0.57;68.55;101944.59;5067036;28;20014;-59
2024/01/10 04:58:27;;;;;;;;;;;;;;;0.68;68.47;101935.78;5068263;28;20628;-54
2024/01/10 05:00:54;;;;;;;;;;;;;;;0.74;68.46;101935.72;5068347;28;19951;-58
2024/01/10 05:03:21;;;;;;;;;;;;;;;0.74;67.40;101930.31;5065696;28;19925;-57
2024/01/10 05:05:48;;;;;;;;;;;;;;;0.77;67.99;101940.72;5067617;28;19928;-57
2024/01/10 05:08:19;;;;;;;;;;;;;;;0.58;68.30;101927.28;5068233;28;19932;-55
2024/01/10 05:10:47;;;;;;;;;;;;;;;0.46;68.57;101929.03;5056390;28;19924;-56
2024/01/10 05:13:14;;;;;;;;;;;;;;;0.38;68.28;101927.41;5062413;28;19924;-56
2024/01/10 05:15:41;;;;;;;;;;;;;;;0.64;68.24;101921.84;5055853;28;19931;-59
2024/01/10 05:18:08;;;;;;;;;;;;;;;0.73;68.53;101930.53;5068106;28;19925;-56
2024/01/10 05:20:35;;;;;;;;;;;;;;;0.80;67.76;101925.91;5065603;28;19924;-59
2024/01/10 05:23:03;;;;;;;;;;;;;;;0.84;67.44;101933.34;5049682;28;20170;-56
2024/01/10 05:25:30;;;;;;;;;;;;;;;0.56;67.83;101924.78;5066408;28;19924;-57
2024/01/10 05:27:58;;;;;;;;;;;;;;;0.61;67.82;101930.38;5000625;28;1894078;-56
2024/01/10 05:30:27;;;;;;;;;;;;;;;0.61;67.75;101924.16;5067898;28;19947;-53
2024/01/10 05:32:55;;;;;;;;;;;;;;;0.59;67.66;101924.38;5068626;28;19920;-57
2024/01/10 05:35:22;;;;;;;;;;;;;;;0.63;68.15;101928.28;5067093;28;19947;-56
2024/01/10 05:37:49;;;;;;;;;;;;;;;0.79;68.24;101918.78;5069467;28;20279;-57
2024/01/10 05:40:18;;;;;;;;;;;;;;;0.91;67.53;101917.03;5069180;28;19924;-59
2024/01/10 05:42:45;;;;;;;;;;;;;;;0.82;67.73;101921.09;5068966;28;19931;-62
2024/01/10 05:45:12;;;;;;;;;;;;;;;0.58;67.69;101919.16;5066923;28;19932;-62
2024/01/10 05:47:39;;;;;;;;;;;;;;;0.66;67.79;101919.72;5063849;28;19925;-63
2024/01/10 05:50:07;;;;;;;;;;;;;;;0.46;67.13;101921.72;5048881;28;19933;-62
2024/01/10 05:52:34;;;;;;;;;;;;;;;0.27;67.91;101922.69;5059357;28;19931;-62
2024/01/10 05:55:02;;;;;;;;;;;;;;;0.16;68.88;101934.19;5060569;28;19935;-62
2024/01/10 05:57:30;;;;;;;;;;;;;;;-0.03;69.75;101918.84;5048519;28;20297;-61
2024/01/10 05:59:57;;;;;;;;;;;;;;;0.27;69.28;101919.13;5048946;28;19951;-62
2024/01/10 06:02:24;;;;;;;;;;;;;;;0.49;68.81;101915.88;5079761;28;19924;-63
2024/01/10 06:04:51;;;;;;;;;;;;;;;0.42;68.60;101909.66;5059934;28;19928;-64
2024/01/10 06:07:20;;;;;;;;;;;;;;;0.21;69.59;101920.00;5068384;28;20401;-65
2024/01/10 06:09:47;;;;;;;;;;;;;;;-0.03;70.09;101916.97;5067491;28;20030;-62
2024/01/10 06:12:14;;;;;;;;;;;;;;;-0.04;70.58;101930.75;5066016;28;20762;-63
2024/01/10 06:14:42;;;;;;;;;;;;;;;-0.09;70.92;101912.41;5067330;28;19924;-63
2024/01/10 06:17:09;;;;;;;;;;;;;;;0.05;70.33;101920.50;5072353;28;19931;-63
2024/01/10 06:19:36;;;;;;;;;;;;;;;0.29;70.45;101915.16;5070650;28;19931;-60
2024/01/10 06:22:04;;;;;;;;;;;;;;;0.49;69.25;101915.06;5072356;28;19924;-57
2024/01/10 06:24:31;;;;;;;;;;;;;;;0.32;68.30;101908.47;5072826;28;19925;-57
2024/01/10 06:26:59;;;;;;;;;;;;;;;0.42;68.38;101919.69;5071803;28;20551;-57
2024/01/10 06:29:26;;;;;;;;;;;;;;;0.47;68.32;101907.13;5072190;28;19939;-60
2024/01/10 06:31:56;;;;;;;;;;;;;;;0.46;68.73;101915.47;5053295;28;19924;-60
2024/01/10 06:34:23;;;;;;;;;;;;;;;0.56;68.53;101918.56;5069864;28;19924;-61
2024/01/10 06:36:50;;;;;;;;;;;;;;;0.38;67.62;101908.44;5071406;28;19931;-64
2024/01/10 06:39:19;;;;;;;;;;;;;;;0.30;67.60;101907.88;5071069;28;19924;-63
2024/01/10 06:41:47;;;;;;;;;;;;;;;0.44;67.20;101912.13;5071143;28;19924;-52
2024/01/10 06:44:14;;;;;;;;;;;;;;;0.52;66.70;101915.44;5086656;28;19924;-57
2024/01/10 06:46:41;;;;;;;;;;;;;;;0.59;67.21;101916.25;5087656;28;19924;-58
2024/01/10 06:49:09;;;;;;;;;;;;;;;0.25;66.18;101913.09;5087587;28;19931;-57
2024/01/10 06:51:36;;;;;;;;;;;;;;;0.15;66.54;101913.56;5071000;28;19924;-56
2024/01/10 06:54:03;;;;;;;;;;;;;;;0.10;66.63;101915.25;5072774;28;19932;-63
2024/01/10 06:56:31;;;;;;;;;;;;;;;0.18;66.91;101907.72;5072783;28;19924;-64
2024/01/10 06:58:58;;;;;;;;;;;;;;;0.36;66.32;101910.53;5053559;28;19924;-62
2024/01/10 07:01:26;;;;;;;;;;;;;;;0.39;65.48;101914.69;5072244;28;19925;-61
2024/01/10 07:03:54;;;;;;;;;;;;;;;0.26;65.35;101914.75;5072973;28;19935;-64
2024/01/10 07:06:24;;;;;;;;;;;;;;;-0.17;66.04;101920.78;5103831;28;19932;-63
2024/01/10 07:08:51;;;;;;;;;;;;;;;0.15;65.84;101919.00;5072333;28;19932;-63
2024/01/10 07:11:19;;;;;;;;;;;;;;;0.36;65.51;101920.53;5058670;28;19924;-61
2024/01/10 07:13:47;;;;;;;;;;;;;;;0.37;64.16;101922.19;5071128;28;19924;-62
2024/01/10 07:16:15;;;;;;;;;;;;;;;0.51;63.88;101919.19;5053293;28;19938;-63
2024/01/10 07:18:42;;;;;;;;;;;;;;;0.55;63.66;101919.59;5054062;28;20326;-61
2024/01/10 07:21:10;;;;;;;;;;;;;;;0.57;63.35;101925.63;5053886;28;19931;-64
2024/01/10 07:23:42;;;;;;;;;;;;;;;0.60;63.11;101927.91;5072370;28;19924;-62
2024/01/10 07:26:14;;;;;;;;;;;;;;;0.43;63.14;101927.59;5071883;28;20401;-63
2024/01/10 07:28:41;;;;;;;;;;;;;;;0.40;62.10;101928.00;5071001;28;19932;-62
2024/01/10 07:31:09;;;;;;;;;;;;;;;0.38;62.23;101923.88;5072009;28;19924;-59
2024/01/10 07:33:39;;;;;;;;;;;;;;;0.48;62.51;101932.34;5070647;28;19924;-63
2024/01/10 07:36:07;;;;;;;;;;;;;;;0.43;61.55;101933.00;5071988;28;19925;-62
2024/01/10 07:38:34;;;;;;;;;;;;;;;0.36;62.27;101929.50;5070244;28;19932;-62
2024/01/10 07:41:02;;;;;;;;;;;;;;;0.30;61.56;101930.34;5087044;28;19925;-57
2024/01/10 07:43:29;;;;;;;;;;;;;;;0.05;63.33;101934.88;5067091;28;19929;-56
2024/01/10 07:46:01;;;;;;;;;;;;;;;0.14;62.82;101930.03;5064185;28;20584;-58
2024/01/10 07:48:30;;;;;;;;;;;;;;;0.26;62.50;101934.56;5070925;28;19931;-57
2024/01/10 07:50:57;;;;;;;;;;;;;;;0.26;62.22;101929.16;5069329;28;19925;-58
2024/01/10 07:53:26;;;;;;;;;;;;;;;0.56;62.04;101929.41;5071732;28;19924;-58
2024/01/10 07:55:54;;;;;;;;;;;;;;;0.44;62.67;101933.81;5064808;28;20310;-61
2024/01/10 07:58:24;;;;;;;;;;;;;;;0.54;62.14;101935.00;5066453;28;19925;-57
2024/01/10 08:00:51;;;;;;;;;;;;;;;0.54;61.67;101939.63;5067058;28;19924;-58
2024/01/10 08:03:19;;;;;;;;;;;;;;;0.57;61.37;101937.31;5064422;28;19936;-55
2024/01/10 08:05:46;;;;;;;;;;;;;;;0.60;61.77;101942.28;5068688;28;19929;-57
2024/01/10 08:08:13;;;;;;;;;;;;;;;0.60;61.25;101945.00;5069062;28;19924;-57
2024/01/10 08:10:41;;;;;;;;;;;;;;;0.53;61.15;101949.63;5068809;28;19925;-56
2024/01/10 08:13:08;;;;;;;;;;;;;;;0.51;61.91;101943.59;5071997;28;19935;-56
2024/01/10 08:15:35;;;;;;;;;;;;;;;0.93;60.82;101944.75;5070957;28;19943;-57
2024/01/10 08:18:07;;;;;;;;;;;;;;;1.04;59.91;101944.91;5071122;28;20375;-56
2024/01/10 08:20:34;;;;;;;;;;;;;;;0.85;60.00;101948.59;5068203;28;19932;-59
2024/01/10 08:23:20;;;;;;;;;;;;;;;0.77;59.36;101951.56;5052917;28;19921;-56
2024/01/10 08:25:50;;;;;;;;;;;;;;;0.43;60.56;101951.16;5056724;28;19935;-55
2024/01/10 08:28:17;;;;;;;;;;;;;;;0.48;60.38;101952.16;5051184;28;19931;-57
2024/01/10 08:30:45;;;;;;;;;;;;;;;0.74;60.26;101951.16;5055700;28;19947;-57
2024/01/10 08:33:15;;;;;;;;;;;;;;;0.76;60.44;101955.31;5068019;28;19924;-58
2024/01/10 08:35:43;;;;;;;;;;;;;;;0.96;60.33;101956.00;5067701;28;19924;-56
2024/01/10 08:38:10;;;;;;;;;;;;;;;1.50;58.24;101957.22;5067904;28;19925;-57
2024/01/10 08:40:38;;;;;;;;;;;;;;;1.17;58.28;101951.25;5058579;28;19924;-58
2024/01/10 08:43:08;;;;;;;;;;;;;;;0.82;59.05;101951.72;5062377;28;19924;-59
2024/01/10 08:45:35;;;;;;;;;;;;;;;0.90;60.05;101956.91;5066971;28;19925;-58
2024/01/10 08:48:03;;;;;;;;;;;;;;;0.89;59.68;101957.94;5064545;28;19925;-56
2024/01/10 08:50:34;;;;;;;;;;;;;;;0.94;59.83;101965.44;5051751;28;20315;-57
2024/01/10 08:53:05;;;;;;;;;;;;;;;0.97;59.97;101956.84;5085083;28;20382;-56
2024/01/10 08:55:37;;;;;;;;;;;;;;;0.93;60.47;101958.31;5056497;28;19924;-59
2024/01/10 08:58:12;;;;;;;;;;;;;;;0.74;60.57;101967.44;5055177;28;19925;-58
2024/01/10 09:00:49;;;;;;;;;;;;;;;0.89;61.06;101963.34;5093774;28;19928;-57
2024/01/10 09:03:16;;;;;;;;;;;;;;;0.84;60.92;101968.63;5068883;28;20566;-56
2024/01/10 09:05:43;;;;;;;;;;;;;;;0.88;61.09;101969.00;5056556;28;19956;-56
2024/01/10 09:08:27;;;;;;;;;;;;;;;0.99;60.45;101971.03;5065304;28;19924;-59
2024/01/10 09:10:55;;;;;;;;;;;;;;;0.77;60.66;101967.81;5062902;28;19943;-59
2024/01/10 09:13:26;;;;;;;;;;;;;;;0.74;61.20;101970.97;5065144;28;19925;-54
2024/01/10 09:15:53;;;;;;;;;;;;;;;0.55;60.94;101962.97;5087342;28;19936;-58
2024/01/10 09:18:20;;;;;;;;;;;;;;;0.43;61.67;101970.13;5050649;28;19925;-56
2024/01/10 09:20:50;;;;;;;;;;;;;;;0.53;61.66;101967.75;5054563;28;19925;-60
2024/01/10 09:23:18;;;;;;;;;;;;;;;0.76;60.80;101968.03;5084944;28;19924;-56
2024/01/10 09:25:45;;;;;;;;;;;;;;;0.88;61.09;101971.72;5052538;28;19924;-59
2024/01/10 09:28:12;;;;;;;;;;;;;;;1.10;60.54;101973.00;5067558;28;19924;-53
2024/01/10 09:30:40;;;;;;;;;;;;;;;1.11;60.22;101975.53;5067883;28;19950;-55
2024/01/10 09:33:09;;;;;;;;;;;;;;;0.99;59.86;101979.97;5074517;28;19998;-57
2024/01/10 09:35:37;;;;;;;;;;;;;;;0.93;60.26;101977.31;5051064;28;19931;-57
2024/01/10 09:38:04;;;;;;;;;;;;;;;0.68;60.67;101971.84;5042719;28;19925;-59
2024/01/10 09:40:31;;;;;;;;;;;;;;;0.80;61.15;101980.13;5037629;28;20351;-56
2024/01/10 09:42:58;;;;;;;;;;;;;;;1.05;60.07;101986.41;5068258;28;19924;-57
2024/01/10 09:45:26;;;;;;;;;;;;;;;1.17;59.56;101985.47;5071162;28;19924;-58
2024/01/10 09:47:54;;;;;;;;;;;;;;;1.07;60.13;101987.00;5091572;28;19924;-55
2024/01/10 09:50:22;;;;;;;;;;;;;;;1.31;59.84;101986.19;5060063;28;19943;-59
2024/01/10 09:52:53;;;;;;;;;;;;;;;1.60;58.38;101990.13;5050594;28;20053;-57
2024/01/10 09:55:21;;;;;;;;;;;;;;;1.43;58.27;101983.59;5062505;28;19925;-59
2024/01/10 09:57:51;;;;;;;;;;;;;;;1.34;57.95;101982.22;5032175;28;20373;-59
2024/01/10 10:00:18;;;;;;;;;;;;;;;1.11;58.34;101991.81;5081300;28;19935;-53
2024/01/10 10:02:45;;;;;;;;;;;;;;;1.29;57.81;101988.28;5061920;28;19947;-54
2024/01/10 10:05:14;;;;;;;;;;;;;;;1.17;58.02;101992.78;5063341;28;19925;-56
2024/01/10 10:07:45;;;;;;;;;;;;;;;1.22;57.38;101986.69;5047980;28;19940;-55
2024/01/10 10:10:12;;;;;;;;;;;;;;;1.16;57.67;101988.41;5061789;28;19925;-54
2024/01/10 10:12:43;;;;;;;;;;;;;;;1.05;57.49;101980.97;5048364;28;19925;-55
2024/01/10 10:15:11;;;;;;;;;;;;;;;1.21;57.64;101980.44;5060215;28;20011;-56
2024/01/10 10:17:45;;;;;;;;;;;;;;;1.03;57.46;101983.91;5064558;28;19924;-57
2024/01/10 10:20:19;;;;;;;;;;;;;;;1.14;56.74;101985.91;5067442;28;19924;-55
2024/01/10 10:23:00;;;;;;;;;;;;;;;1.21;56.63;101979.59;5077025;28;20489;-55
2024/01/10 10:25:32;;;;;;;;;;;;;;;1.18;56.09;101983.59;5057873;28;20034;-54
2024/01/10 10:28:02;;;;;;;;;;;;;;;1.07;55.83;101976.16;5067008;28;19924;-57
2024/01/10 10:30:33;;;;;;;;;;;;;;;1.08;55.97;101975.94;5066822;28;19931;-55
2024/01/10 10:33:01;;;;;;;;;;;;;;;1.11;56.29;101971.97;5083688;28;20091;-52
2024/01/10 10:35:28;;;;;;;;;;;;;;;1.17;56.14;101977.34;5067584;28;19924;-57
2024/01/10 10:38:08;;;;;;;;;;;;;;;1.26;55.73;101969.75;5061809;28;20624;-59
2024/01/10 10:40:36;;;;;;;;;;;;;;;1.28;55.24;101972.22;5068974;28;19947;-59
2024/01/10 10:43:03;;;;;;;;;;;;;;;1.12;56.33;101969.03;5066571;28;19931;-56
2024/01/10 10:45:31;;;;;;;;;;;;;;;1.36;55.63;101964.63;5067782;28;19924;-58
2024/01/10 10:47:59;;;;;;;;;;;;;;;1.25;55.39;101962.66;5055562;28;19925;-59
2024/01/10 10:50:32;;;;;;;;;;;;;;;1.13;56.29;101961.72;5076994;28;19924;-59
2024/01/10 10:53:00;;;;;;;;;;;;;;;1.12;56.48;101962.75;5064268;28;19924;-64
2024/01/10 10:55:27;;;;;;;;;;;;;;;1.21;55.44;101958.72;5065642;28;19925;-57
2024/01/10 10:57:55;;;;;;;;;;;;;;;1.17;55.57;101962.94;5064713;28;19924;-59
2024/01/10 11:00:34;;;;;;;;;;;;;;;1.13;56.00;101956.31;5050435;28;19924;-65
2024/01/10 11:03:02;;;;;;;;;;;;;;;1.26;55.58;101953.47;5077385;28;19931;-66
2024/01/10 11:05:29;;;;;;;;;;;;;;;1.11;55.85;101952.97;5083107;28;19932;-65
2024/01/10 11:07:56;;;;;;;;;;;;;;;1.11;56.22;101952.97;5065150;28;19931;-64
2024/01/10 11:10:25;;;;;;;;;;;;;;;1.49;56.01;101950.97;5069584;28;19935;-61
2024/01/10 11:12:54;;;;;;;;;;;;;;;1.64;54.32;101942.47;5071642;28;19924;-64
2024/01/10 11:15:30;;;;;;;;;;;;;;;1.54;55.16;101947.56;5051999;28;19925;-64
2024/01/10 11:18:01;;;;;;;;;;;;;;;1.73;54.64;101938.38;5061325;28;20674;-63
2024/01/10 11:20:44;;;;;;;;;;;;;;;1.58;54.67;101940.63;5069435;28;19932;-62
2024/01/10 11:23:23;;;;;;;;;;;;;;;1.76;54.52;101935.22;5067988;28;19921;-62
2024/01/10 11:25:51;;;;;;;;;;;;;;;1.76;53.87;101944.19;5049735;28;19937;-63
2024/01/10 11:28:18;;;;;;;;;;;;;;;1.58;54.71;101937.91;5060698;28;19931;-64
2024/01/10 11:30:56;;;;;;;;;;;;;;;1.85;54.21;101940.13;5056778;28;19924;-62
2024/01/10 11:33:25;;;;;;;;;;;;;;;1.70;54.45;101936.13;5068857;28;19924;-63
2024/01/10 11:36:11;;;;;;;;;;;;;;;1.77;54.81;101926.84;5066150;28;19931;-63
2024/01/10 11:38:48;;;;;;;;;;;;;;;2.02;54.50;101926.78;5071116;28;19924;-64
2024/01/10 11:41:20;;;;;;;;;;;;;;;2.05;54.80;101929.03;5070234;28;19924;-64
2024/01/10 11:44:06;;;;;;;;;;;;;;;2.20;54.45;101918.56;5062258;28;19924;-63
2024/01/10 11:46:34;;;;;;;;;;;;;;;2.23;53.84;101920.84;5079880;28;19925;-62
2024/01/10 11:49:01;;;;;;;;;;;;;;;2.18;53.93;101926.97;5070637;28;19924;-63
2024/01/10 11:51:29;;;;;;;;;;;;;;;2.21;53.85;101918.34;5067533;28;19931;-62
2024/01/10 11:53:56;;;;;;;;;;;;;;;2.41;53.06;101917.28;5069276;28;19924;-65
2024/01/10 11:56:24;;;;;;;;;;;;;;;2.18;53.86;101926.97;5055933;28;20477;-62
2024/01/10 11:59:08;;;;;;;;;;;;;;;2.15;53.93;101921.16;5068871;28;19924;-62
2024/01/10 12:01:35;;;;;;;;;;;;;;;2.10;53.65;101924.56;5059252;28;20426;-63
2024/01/10 12:04:03;;;;;;;;;;;;;;;1.68;54.54;101914.63;5054061;28;19940;-62
2024/01/10 12:06:44;;;;;;;;;;;;;;;1.80;55.13;101918.25;5049803;28;19925;-64
2024/01/10 12:09:13;;;;;;;;;;;;;;;1.63;54.97;101911.75;5065577;28;19931;-63
2024/01/10 12:11:41;;;;;;;;;;;;;;;1.89;54.63;101914.16;5048878;28;19933;-63
2024/01/10 12:14:08;;;;;;;;;;;;;;;2.12;54.26;101908.88;5067313;28;19924;-65
2024/01/10 12:16:35;;;;;;;;;;;;;;;2.19;53.75;101904.19;5070244;28;20170;-63
2024/01/10 12:19:03;;;;;;;;;;;;;;;1.97;53.45;101907.59;5067424;28;19928;-62
2024/01/10 12:21:30;;;;;;;;;;;;;;;2.01;53.49;101904.19;5070621;28;19924;-63
2024/01/10 12:23:57;;;;;;;;;;;;;;;2.27;53.86;101903.84;5070037;28;20501;-62
2024/01/10 12:26:24;;;;;;;;;;;;;;;2.75;54.60;101895.63;5067732;28;19924;-57
2024/01/10 12:28:55;;;;;;;;;;;;;;;2.67;53.38;101897.84;5064169;28;19924;-58
2024/01/10 12:31:23;;;;;;;;;;;;;;;2.08;53.33;101906.81;5070047;28;20601;-57
2024/01/10 12:33:50;;;;;;;;;;;;;;;2.19;53.47;101887.88;5069786;28;19931;-58
2024/01/10 12:36:18;;;;;;;;;;;;;;;2.14;54.07;101892.34;5069397;28;19931;-57
2024/01/10 12:38:45;;;;;;;;;;;;;;;2.28;54.15;101881.03;5071289;28;20481;-57
2024/01/10 12:41:14;;;;;;;;;;;;;;;2.44;54.32;101885.00;5031723;28;19932;-56
2024/01/10 12:43:41;;;;;;;;;;;;;;;2.42;54.01;101869.97;5067805;28;19936;-58
2024/01/10 12:46:12;;;;;;;;;;;;;;;2.38;54.23;101871.50;5062597;28;19931;-55
2024/01/10 12:48:41;;;;;;;;;;;;;;;2.39;54.46;101865.03;5065686;28;19924;-56
2024/01/10 12:51:12;;;;;;;;;;;;;;;2.27;53.67;101868.50;5069139;28;19955;-57